createdAt,value
2023-05-08T00:00:25.219Z,56.00
2023-05-08T00:01:25.212Z,56.18
2023-05-08T00:02:25.322Z,56.21
2023-05-08T00:03:25.486Z,56.20
2023-05-08T00:04:25.407Z,56.76
2023-05-08T00:05:25.406Z,56.86
2023-05-08T00:06:25.444Z,56.81
2023-05-08T00:07:25.528Z,56.72
2023-05-08T00:08:25.547Z,56.40
2023-05-08T00:09:25.607Z,56.54
2023-05-08T00:10:25.654Z,56.72
2023-05-08T00:11:25.704Z,56.92
2023-05-08T00:12:25.713Z,56.09
2023-05-08T00:13:25.900Z,56.56
2023-05-08T00:14:25.802Z,56.49
2023-05-08T00:15:25.849Z,56.18
2023-05-08T00:16:26.018Z,56.14
2023-05-08T00:17:26.014Z,56.42
2023-05-08T00:18:26.068Z,56.71
2023-05-08T00:19:26.053Z,56.38
2023-05-08T00:20:26.073Z,56.04
2023-05-08T00:21:26.148Z,56.32
2023-05-08T00:22:26.192Z,56.54
2023-05-08T00:23:26.275Z,56.57
2023-05-08T00:24:26.336Z,56.54
2023-05-08T00:25:26.367Z,56.53
2023-05-08T00:26:26.406Z,56.86
2023-05-08T00:27:26.437Z,56.58
2023-05-08T00:28:26.479Z,56.38
2023-05-08T00:29:26.528Z,56.44
2023-05-08T00:30:26.628Z,56.43
2023-05-08T00:31:26.661Z,56.42
2023-05-08T00:32:26.807Z,56.64
2023-05-08T00:33:26.771Z,56.68
2023-05-08T00:34:26.816Z,56.67
2023-05-08T00:35:26.874Z,56.85
2023-05-08T00:36:26.973Z,57.02
2023-05-08T00:37:26.986Z,57.13
2023-05-08T00:38:27.080Z,57.27
2023-05-08T00:39:27.173Z,57.53
2023-05-08T00:40:27.135Z,57.42
2023-05-08T00:41:27.226Z,57.53
2023-05-08T00:42:27.280Z,58.08
2023-05-08T00:43:27.349Z,57.96
2023-05-08T00:44:27.397Z,58.22
2023-05-08T00:45:27.399Z,57.89
2023-05-08T00:46:27.512Z,58.07
2023-05-08T00:47:27.549Z,57.65
2023-05-08T00:48:27.591Z,57.85
2023-05-08T00:49:27.613Z,57.95
2023-05-08T00:50:27.698Z,57.46
2023-05-08T00:51:27.758Z,57.11
2023-05-08T00:52:27.823Z,56.73
2023-05-08T00:53:27.843Z,56.97
2023-05-08T00:54:27.903Z,57.27
2023-05-08T00:55:27.907Z,57.26
2023-05-08T00:56:27.934Z,57.33
2023-05-08T00:57:27.969Z,57.17
2023-05-08T00:58:28.060Z,57.10
2023-05-08T00:59:28.105Z,57.11
2023-05-08T01:00:28.163Z,57.03
2023-05-08T01:01:28.264Z,56.89
2023-05-08T01:02:28.344Z,56.91
2023-05-08T01:03:28.426Z,56.95
2023-05-08T01:04:28.421Z,57.00
2023-05-08T01:05:28.442Z,56.96
2023-05-08T01:06:28.525Z,57.00
2023-05-08T01:07:28.533Z,57.08
2023-05-08T01:08:28.624Z,57.06
2023-05-08T01:09:28.622Z,57.06
2023-05-08T01:10:28.676Z,56.65
2023-05-08T01:11:28.710Z,56.67
2023-05-08T01:12:28.743Z,56.38
2023-05-08T01:13:28.715Z,56.84
2023-05-08T01:14:28.723Z,57.22
2023-05-08T01:15:28.749Z,57.06
2023-05-08T01:16:28.781Z,56.45
2023-05-08T01:17:28.826Z,56.14
2023-05-08T01:18:28.721Z,56.58
2023-05-08T01:19:28.731Z,56.83
2023-05-08T01:20:28.747Z,56.80
2023-05-08T01:21:28.733Z,56.97
2023-05-08T01:22:28.717Z,57.14
2023-05-08T01:23:28.774Z,57.13
2023-05-08T01:24:28.752Z,56.86
2023-05-08T01:25:28.776Z,56.99
2023-05-08T01:26:28.777Z,56.82
2023-05-08T01:27:28.747Z,56.71
2023-05-08T01:28:28.773Z,57.03
2023-05-08T01:29:28.811Z,57.09
2023-05-08T01:30:28.791Z,57.07
2023-05-08T01:31:28.764Z,57.38
2023-05-08T01:32:28.809Z,57.28
2023-05-08T01:33:28.789Z,57.19
2023-05-08T01:34:28.743Z,56.34
2023-05-08T01:35:28.796Z,56.61
2023-05-08T01:36:28.770Z,56.83
2023-05-08T01:37:28.765Z,57.28
2023-05-08T01:38:28.756Z,57.60
2023-05-08T01:39:28.773Z,57.66
2023-05-08T01:40:28.729Z,57.80
2023-05-08T01:41:28.787Z,57.34
2023-05-08T01:42:28.792Z,57.33
2023-05-08T01:43:28.828Z,57.59
2023-05-08T01:44:28.805Z,57.71
2023-05-08T01:45:28.779Z,57.81
2023-05-08T01:46:28.837Z,57.90
2023-05-08T01:47:28.877Z,57.97
2023-05-08T01:48:28.834Z,57.89
2023-05-08T01:49:28.844Z,57.78
2023-05-08T01:50:28.852Z,57.88
2023-05-08T01:51:28.848Z,57.82
2023-05-08T01:52:28.869Z,58.02
2023-05-08T01:53:28.879Z,57.86
2023-05-08T01:54:28.896Z,57.89
2023-05-08T01:55:28.954Z,57.82
2023-05-08T01:56:28.931Z,57.51
2023-05-08T01:57:28.896Z,57.64
2023-05-08T01:58:28.913Z,57.86
2023-05-08T01:59:28.912Z,57.59
2023-05-08T02:00:28.950Z,57.55
2023-05-08T02:01:28.922Z,57.46
2023-05-08T02:02:29.007Z,57.85
2023-05-08T02:03:29.009Z,57.81
2023-05-08T02:04:28.951Z,57.67
2023-05-08T02:05:28.947Z,57.51
2023-05-08T02:06:28.968Z,57.41
2023-05-08T02:07:29.021Z,57.59
2023-05-08T02:08:29.040Z,57.57
2023-05-08T02:09:29.048Z,57.65
2023-05-08T02:10:29.101Z,57.81
2023-05-08T02:11:29.106Z,57.78
2023-05-08T02:12:29.113Z,57.58
2023-05-08T02:13:29.149Z,57.40
2023-05-08T02:14:29.116Z,57.60
2023-05-08T02:15:29.155Z,57.56
2023-05-08T02:16:29.179Z,57.62
2023-05-08T02:17:29.192Z,57.53
2023-05-08T02:18:29.194Z,57.67
2023-05-08T02:19:29.205Z,57.83
2023-05-08T02:20:29.219Z,58.08
2023-05-08T02:21:29.227Z,57.90
2023-05-08T02:22:29.234Z,57.89
2023-05-08T02:23:29.332Z,57.81
2023-05-08T02:24:29.297Z,57.82
2023-05-08T02:25:29.312Z,57.87
2023-05-08T02:26:29.319Z,57.82
2023-05-08T02:27:29.341Z,57.90
2023-05-08T02:28:29.329Z,57.98
2023-05-08T02:29:29.339Z,58.08
2023-05-08T02:30:29.343Z,58.05
2023-05-08T02:31:29.362Z,58.09
2023-05-08T02:32:29.348Z,58.15
2023-05-08T02:33:29.405Z,58.36
2023-05-08T02:34:29.419Z,58.27
2023-05-08T02:35:29.389Z,57.96
2023-05-08T02:36:29.428Z,58.03
2023-05-08T02:37:29.454Z,58.05
2023-05-08T02:38:29.506Z,57.87
2023-05-08T02:39:29.476Z,58.05
2023-05-08T02:40:29.518Z,57.99
2023-05-08T02:41:29.517Z,57.95
2023-05-08T02:42:29.517Z,58.36
2023-05-08T02:43:29.533Z,58.34
2023-05-08T02:44:29.530Z,58.15
2023-05-08T02:45:29.560Z,58.13
2023-05-08T02:46:29.645Z,58.23
2023-05-08T02:47:29.601Z,57.90
2023-05-08T02:48:29.606Z,58.03
2023-05-08T02:49:29.627Z,58.09
2023-05-08T02:50:29.613Z,57.91
2023-05-08T02:51:29.635Z,57.71
2023-05-08T02:52:29.631Z,57.81
2023-05-08T02:53:29.708Z,57.78
2023-05-08T02:54:29.715Z,57.75
2023-05-08T02:55:29.765Z,58.02
2023-05-08T02:56:29.764Z,58.14
2023-05-08T02:57:29.768Z,58.39
2023-05-08T02:58:29.772Z,58.25
2023-05-08T02:59:29.781Z,58.48
2023-05-08T03:00:29.810Z,58.37
2023-05-08T03:01:29.923Z,58.42
2023-05-08T03:02:29.904Z,58.25
2023-05-08T03:03:30.005Z,58.02
2023-05-08T03:04:29.876Z,57.93
2023-05-08T03:05:29.937Z,57.61
2023-05-08T03:06:29.910Z,57.59
2023-05-08T03:07:29.941Z,57.90
2023-05-08T03:08:30.035Z,57.95
2023-05-08T03:09:30.015Z,58.09
2023-05-08T03:10:30.051Z,57.86
2023-05-08T03:11:30.099Z,57.83
2023-05-08T03:12:30.095Z,57.86
2023-05-08T03:13:30.194Z,57.89
2023-05-08T03:14:30.186Z,57.95
2023-05-08T03:15:30.187Z,57.98
2023-05-08T03:16:30.341Z,58.03
2023-05-08T03:17:30.277Z,58.07
2023-05-08T03:18:30.317Z,58.13
2023-05-08T03:19:30.318Z,58.06
2023-05-08T03:20:30.339Z,58.16
2023-05-08T03:21:30.437Z,58.03
2023-05-08T03:22:30.410Z,58.15
2023-05-08T03:23:30.462Z,57.92
2023-05-08T03:24:30.527Z,58.23
2023-05-08T03:25:30.569Z,58.14
2023-05-08T03:26:30.600Z,58.06
2023-05-08T03:27:30.612Z,58.20
2023-05-08T03:28:30.660Z,58.46
2023-05-08T03:29:30.679Z,58.21
2023-05-08T03:30:30.709Z,58.33
2023-05-08T03:31:30.789Z,58.36
2023-05-08T03:32:30.815Z,58.40
2023-05-08T03:33:30.825Z,58.23
2023-05-08T03:34:30.866Z,58.11
2023-05-08T03:35:30.923Z,58.18
2023-05-08T03:36:30.945Z,58.08
2023-05-08T03:37:31.013Z,58.08
2023-05-08T03:38:31.072Z,58.25
2023-05-08T03:39:31.076Z,58.30
2023-05-08T03:40:31.133Z,58.50
2023-05-08T03:41:31.200Z,58.30
2023-05-08T03:42:31.207Z,58.35
2023-05-08T03:43:31.253Z,58.26
2023-05-08T03:44:31.297Z,58.09
2023-05-08T03:45:31.328Z,58.14
2023-05-08T03:46:31.412Z,58.17
2023-05-08T03:47:31.405Z,58.19
2023-05-08T03:48:31.445Z,58.20
2023-05-08T03:49:31.505Z,58.19
2023-05-08T03:50:31.560Z,58.27
2023-05-08T03:51:31.571Z,58.22
2023-05-08T03:52:31.635Z,58.33
2023-05-08T03:53:31.714Z,58.46
2023-05-08T03:54:31.652Z,58.62
2023-05-08T03:55:31.743Z,58.38
2023-05-08T03:56:31.777Z,58.53
2023-05-08T03:57:31.791Z,58.60
2023-05-08T03:58:31.855Z,58.52
2023-05-08T03:59:31.922Z,58.49
2023-05-08T04:00:32.002Z,58.45
2023-05-08T04:01:32.080Z,58.40
2023-05-08T04:02:32.196Z,58.46
2023-05-08T04:03:32.191Z,58.57
2023-05-08T04:04:32.143Z,58.40
2023-05-08T04:05:32.127Z,58.24
2023-05-08T04:06:42.052Z,58.12
2023-05-08T04:07:33.160Z,58.25
2023-05-08T04:08:32.186Z,58.30
2023-05-08T04:09:32.205Z,58.16
2023-05-08T04:10:32.189Z,58.40
2023-05-08T04:11:32.126Z,58.50
2023-05-08T04:12:32.156Z,58.44
2023-05-08T04:13:32.208Z,58.42
2023-05-08T04:14:32.174Z,58.50
2023-05-08T04:15:32.149Z,58.26
2023-05-08T04:16:32.135Z,58.16
2023-05-08T04:17:32.115Z,58.22
2023-05-08T04:18:32.128Z,58.24
2023-05-08T04:19:32.073Z,58.30
2023-05-08T04:20:32.091Z,58.15
2023-05-08T04:21:32.107Z,58.40
2023-05-08T04:22:32.141Z,58.23
2023-05-08T04:23:32.231Z,58.34
2023-05-08T04:24:32.217Z,58.14
2023-05-08T04:25:32.238Z,57.91
2023-05-08T04:26:32.270Z,57.93
2023-05-08T04:27:32.394Z,58.11
2023-05-08T04:28:32.356Z,58.14
2023-05-08T04:29:32.358Z,58.02
2023-05-08T04:30:32.370Z,57.52
2023-05-08T04:31:32.434Z,57.62
2023-05-08T04:32:32.466Z,57.64
2023-05-08T04:33:32.473Z,58.00
2023-05-08T04:34:32.561Z,57.93
2023-05-08T04:35:32.560Z,57.91
2023-05-08T04:36:32.584Z,57.88
2023-05-08T04:37:32.620Z,58.16
2023-05-08T04:38:32.656Z,58.16
2023-05-08T04:39:32.658Z,57.90
2023-05-08T04:40:32.734Z,57.75
2023-05-08T04:41:32.762Z,57.74
2023-05-08T04:42:32.756Z,57.75
2023-05-08T04:43:32.829Z,57.70
2023-05-08T04:44:32.860Z,57.41
2023-05-08T04:45:32.859Z,57.55
2023-05-08T04:46:32.927Z,57.85
2023-05-08T04:47:32.973Z,57.95
2023-05-08T04:48:32.959Z,58.00
2023-05-08T04:49:32.951Z,57.90
2023-05-08T04:50:33.023Z,57.90
2023-05-08T04:51:33.064Z,57.89
2023-05-08T04:52:33.047Z,57.51
2023-05-08T04:53:33.143Z,57.53
2023-05-08T04:54:33.142Z,57.88
2023-05-08T04:55:33.146Z,57.99
2023-05-08T04:56:33.209Z,57.99
2023-05-08T04:57:33.234Z,57.92
2023-05-08T04:58:33.248Z,58.26
2023-05-08T04:59:33.211Z,58.14
2023-05-08T05:03:22.816Z,58.04
2023-05-08T05:04:12.208Z,57.99
2023-05-08T05:05:12.550Z,57.89
2023-05-08T05:06:12.153Z,58.00
2023-05-08T05:07:12.121Z,58.02
2023-05-08T05:08:12.093Z,57.95
2023-05-08T05:09:12.864Z,57.93
2023-05-08T05:10:12.088Z,57.97
2023-05-08T05:11:12.105Z,57.43
2023-05-08T05:12:12.114Z,57.64
2023-05-08T05:13:12.255Z,57.72
2023-05-08T05:14:12.092Z,57.63
2023-05-08T05:15:12.210Z,57.68
2023-05-08T05:16:12.148Z,58.14
2023-05-08T05:17:12.134Z,58.31
2023-05-08T05:18:12.119Z,58.32
2023-05-08T05:19:12.128Z,58.40
2023-05-08T05:20:18.473Z,58.51
2023-05-08T05:21:12.088Z,58.53
2023-05-08T05:22:12.171Z,58.55
2023-05-08T05:23:12.097Z,58.29
2023-05-08T05:24:12.160Z,57.99
2023-05-08T05:25:12.328Z,58.13
2023-05-08T05:26:12.079Z,57.70
2023-05-08T05:27:12.069Z,57.91
2023-05-08T05:28:12.115Z,58.01
2023-05-08T05:29:12.395Z,58.08
2023-05-08T05:30:12.322Z,58.09
2023-05-08T05:31:12.147Z,57.97
2023-05-08T05:32:11.999Z,57.89
2023-05-08T05:33:12.335Z,57.86
2023-05-08T05:34:12.833Z,57.40
2023-05-08T05:35:12.358Z,57.83
2023-05-08T05:36:12.067Z,57.91
2023-05-08T05:37:12.034Z,58.07
2023-05-08T05:38:12.366Z,58.21
2023-05-08T05:39:12.333Z,58.26
2023-05-08T05:40:12.218Z,58.17
2023-05-08T05:41:11.968Z,58.16
2023-05-08T05:42:11.983Z,58.23
2023-05-08T05:43:12.054Z,58.06
2023-05-08T05:44:12.664Z,58.20
2023-05-08T05:45:12.167Z,58.08
2023-05-08T05:47:31.423Z,58.29
2023-05-08T05:48:31.326Z,58.37
2023-05-08T05:49:31.320Z,58.46
2023-05-08T05:50:31.333Z,58.62
2023-05-08T05:51:31.309Z,58.48
2023-05-08T05:52:31.290Z,58.54
2023-05-08T05:53:31.311Z,58.44
2023-05-08T05:54:31.296Z,58.60
2023-05-08T05:55:31.286Z,58.48
2023-05-08T05:56:31.280Z,57.39
2023-05-08T05:57:31.360Z,57.86
2023-05-08T05:58:31.206Z,58.07
2023-05-08T05:59:31.498Z,58.11
2023-05-08T06:00:31.318Z,58.10
2023-05-08T06:01:31.217Z,58.33
2023-05-08T06:02:31.301Z,58.60
2023-05-08T06:03:31.287Z,58.60
2023-05-08T06:04:31.715Z,58.67
2023-05-08T06:05:31.162Z,58.53
2023-05-08T06:06:31.219Z,58.67
2023-05-08T06:07:31.256Z,58.58
2023-05-08T06:08:31.187Z,58.59
2023-05-08T06:09:31.541Z,58.74
2023-05-08T06:10:32.091Z,58.44
2023-05-08T06:11:32.075Z,58.38
2023-05-08T06:12:31.186Z,58.58
2023-05-08T06:13:31.149Z,58.75
2023-05-08T06:14:31.558Z,58.90
2023-05-08T06:15:31.128Z,58.69
2023-05-08T06:16:32.016Z,58.61
2023-05-08T06:17:31.116Z,58.53
2023-05-08T06:18:31.196Z,58.32
2023-05-08T06:19:31.235Z,56.64
2023-05-08T06:20:31.886Z,56.18
2023-05-08T06:21:31.112Z,55.63
2023-05-08T06:22:31.118Z,55.95
2023-05-08T06:23:31.076Z,55.47
2023-05-08T06:24:31.552Z,58.26
2023-05-08T06:25:31.152Z,58.71
2023-05-08T06:26:31.972Z,59.02
2023-05-08T06:27:31.222Z,58.98
2023-05-08T06:28:31.274Z,59.26
2023-05-08T06:29:31.530Z,59.28
2023-05-08T06:30:31.389Z,59.06
2023-05-08T06:31:31.403Z,59.11
2023-05-08T06:32:31.340Z,58.96
2023-05-08T06:33:31.318Z,59.07
2023-05-08T06:34:31.604Z,59.18
2023-05-08T06:35:31.336Z,58.88
2023-05-08T06:36:31.323Z,59.00
2023-05-08T06:37:32.007Z,59.03
2023-05-08T06:38:31.364Z,58.93
2023-05-08T06:39:31.478Z,58.40
2023-05-08T06:40:32.114Z,58.15
2023-05-08T06:41:31.453Z,58.45
2023-05-08T06:42:31.523Z,58.38
2023-05-08T06:43:31.368Z,58.33
2023-05-08T06:44:31.538Z,58.16
2023-05-08T06:45:32.153Z,57.93
2023-05-08T06:46:32.205Z,58.24
2023-05-08T06:47:31.430Z,58.35
2023-05-08T06:48:32.480Z,58.83
2023-05-08T06:49:32.044Z,58.71
2023-05-08T06:50:31.550Z,58.66
2023-05-08T06:51:31.546Z,58.44
2023-05-08T06:52:31.479Z,58.04
2023-05-08T06:53:31.457Z,57.67
2023-05-08T06:54:31.561Z,57.79
2023-05-08T06:55:31.584Z,57.94
2023-05-08T06:56:31.621Z,58.01
2023-05-08T06:57:31.600Z,58.18
2023-05-08T06:58:32.521Z,57.92
2023-05-08T06:59:31.491Z,58.14
2023-05-08T07:00:31.444Z,58.06
2023-05-08T07:01:31.547Z,58.27
2023-05-08T07:02:31.515Z,58.41
2023-05-08T07:03:31.817Z,58.39
2023-05-08T07:04:32.257Z,58.40
2023-05-08T07:05:31.428Z,58.14
2023-05-08T07:06:31.880Z,58.10
2023-05-08T07:07:31.452Z,58.24
2023-05-08T07:08:31.452Z,58.19
2023-05-08T07:09:31.669Z,58.08
2023-05-08T07:10:31.671Z,58.02
2023-05-08T07:11:31.879Z,58.01
2023-05-08T07:12:31.821Z,58.09
2023-05-08T07:13:31.829Z,57.90
2023-05-08T07:14:32.098Z,57.79
2023-05-08T07:15:32.134Z,57.72
2023-05-08T07:16:31.869Z,58.00
2023-05-08T07:17:31.856Z,58.13
2023-05-08T07:18:31.879Z,58.09
2023-05-08T07:19:31.938Z,57.92
2023-05-08T07:20:32.109Z,58.08
2023-05-08T07:21:31.988Z,58.03
2023-05-08T07:22:32.055Z,58.18
2023-05-08T07:23:32.174Z,58.17
2023-05-08T07:24:32.617Z,58.22
2023-05-08T07:25:33.108Z,58.18
2023-05-08T07:26:32.270Z,57.95
2023-05-08T07:27:32.292Z,57.46
2023-05-08T07:28:32.423Z,57.35
2023-05-08T07:29:32.410Z,57.60
2023-05-08T07:30:32.532Z,57.87
2023-05-08T07:31:33.108Z,57.71
2023-05-08T07:32:32.563Z,57.52
2023-05-08T07:33:32.540Z,57.53
2023-05-08T07:34:32.645Z,57.15
2023-05-08T07:35:33.540Z,57.10
2023-05-08T07:36:32.761Z,57.22
2023-05-08T07:37:32.766Z,57.23
2023-05-08T07:38:32.888Z,57.36
2023-05-08T07:39:32.856Z,57.50
2023-05-08T07:40:33.014Z,57.59
2023-05-08T07:41:33.067Z,57.74
2023-05-08T07:42:33.111Z,57.50
2023-05-08T07:43:33.092Z,57.35
2023-05-08T07:44:40.573Z,57.55
2023-05-08T07:45:34.580Z,57.33
2023-05-08T07:46:33.168Z,57.36
2023-05-08T07:47:33.115Z,57.39
2023-05-08T07:48:33.177Z,57.45
2023-05-08T07:49:33.064Z,57.50
2023-05-08T07:50:33.532Z,57.74
2023-05-08T07:51:33.148Z,57.61
2023-05-08T07:52:33.095Z,57.46
2023-05-08T07:53:33.047Z,57.60
2023-05-08T07:54:33.054Z,57.41
2023-05-08T07:55:33.506Z,57.43
2023-05-08T07:56:33.058Z,57.42
2023-05-08T07:57:33.013Z,57.50
2023-05-08T07:58:33.129Z,57.42
2023-05-08T07:59:33.031Z,57.61
2023-05-08T08:00:33.667Z,57.54
2023-05-08T08:01:33.245Z,57.46
2023-05-08T08:02:33.135Z,57.46
2023-05-08T08:03:33.096Z,57.56
2023-05-08T08:04:33.118Z,57.64
2023-05-08T08:05:33.079Z,57.52
2023-05-08T08:06:33.080Z,57.46
2023-05-08T08:07:33.104Z,57.57
2023-05-08T08:08:33.186Z,57.26
2023-05-08T08:09:33.159Z,57.36
2023-05-08T08:10:33.232Z,57.61
2023-05-08T08:11:33.238Z,57.42
2023-05-08T08:12:33.360Z,57.43
2023-05-08T08:13:33.313Z,56.77
2023-05-08T08:14:33.413Z,56.76
2023-05-08T08:15:34.062Z,57.15
2023-05-08T08:16:33.485Z,57.18
2023-05-08T08:17:33.577Z,57.13
2023-05-08T08:18:33.575Z,57.08
2023-05-08T08:19:33.707Z,57.20
2023-05-08T08:20:34.091Z,57.38
2023-05-08T08:21:33.711Z,56.92
2023-05-08T08:22:33.728Z,57.36
2023-05-08T08:23:33.822Z,57.30
2023-05-08T08:24:33.780Z,56.90
2023-05-08T08:25:33.941Z,56.89
2023-05-08T08:26:33.836Z,57.00
2023-05-08T08:27:33.973Z,56.62
2023-05-08T08:28:33.968Z,56.77
2023-05-08T08:29:33.970Z,56.84
2023-05-08T08:30:34.079Z,56.72
2023-05-08T08:31:34.079Z,56.79
2023-05-08T08:32:34.026Z,56.68
2023-05-08T08:33:33.981Z,56.37
2023-05-08T08:34:34.071Z,56.10
2023-05-08T08:35:34.584Z,55.85
2023-05-08T08:36:34.006Z,56.41
2023-05-08T08:37:34.155Z,56.61
2023-05-08T08:38:34.138Z,56.45
2023-05-08T08:39:34.126Z,56.51
2023-05-08T08:40:34.647Z,56.51
2023-05-08T08:41:34.090Z,55.91
2023-05-08T08:42:34.162Z,55.65
2023-05-08T08:43:34.213Z,55.53
2023-05-08T08:44:34.257Z,55.88
2023-05-08T08:45:34.189Z,55.90
2023-05-08T08:46:34.255Z,56.15
2023-05-08T08:47:34.293Z,55.79
2023-05-08T08:48:34.228Z,56.15
2023-05-08T08:49:34.200Z,56.38
2023-05-08T08:50:34.326Z,56.29
2023-05-08T08:51:34.320Z,56.26
2023-05-08T08:52:34.335Z,56.10
2023-05-08T08:53:34.322Z,55.48
2023-05-08T08:54:34.422Z,54.89
2023-05-08T08:55:34.653Z,55.30
2023-05-08T08:56:34.367Z,55.18
2023-05-08T08:57:35.136Z,54.99
2023-05-08T08:58:39.191Z,54.76
2023-05-08T08:59:35.527Z,55.04
2023-05-08T09:00:35.104Z,55.45
2023-05-08T09:01:34.791Z,55.76
2023-05-08T09:02:34.989Z,55.50
2023-05-08T09:03:34.397Z,54.85
2023-05-08T09:04:34.326Z,55.18
2023-05-08T09:05:34.416Z,55.07
2023-05-08T09:06:34.627Z,55.05
2023-05-08T09:07:34.331Z,55.18
2023-05-08T09:08:34.437Z,54.37
2023-05-08T09:09:34.301Z,54.19
2023-05-08T09:10:34.414Z,54.86
2023-05-08T09:11:34.607Z,54.99
2023-05-08T09:12:34.258Z,55.02
2023-05-08T09:13:34.403Z,54.64
2023-05-08T09:14:34.306Z,54.78
2023-05-08T09:15:34.300Z,54.30
2023-05-08T09:16:34.746Z,54.50
2023-05-08T09:17:34.327Z,54.66
2023-05-08T09:18:34.211Z,54.39
2023-05-08T09:19:34.301Z,54.59
2023-05-08T09:20:34.239Z,54.64
2023-05-08T09:21:34.583Z,54.28
2023-05-08T09:22:34.239Z,54.29
2023-05-08T09:23:34.222Z,54.24
2023-05-08T09:24:34.205Z,54.55
2023-05-08T09:25:34.262Z,53.81
2023-05-08T09:26:34.685Z,53.31
2023-05-08T09:27:34.159Z,53.87
2023-05-08T09:28:34.180Z,53.70
2023-05-08T09:29:34.199Z,53.74
2023-05-08T09:30:34.179Z,53.80
2023-05-08T09:31:34.632Z,54.33
2023-05-08T09:32:34.198Z,54.37
2023-05-08T09:33:34.110Z,53.53
2023-05-08T09:34:34.171Z,53.45
2023-05-08T09:35:34.144Z,53.57
2023-05-08T09:36:34.118Z,53.72
2023-05-08T09:37:34.143Z,53.93
2023-05-08T09:38:34.116Z,52.88
2023-05-08T09:39:34.118Z,53.65
2023-05-08T09:40:34.095Z,54.04
2023-05-08T09:41:34.635Z,53.75
2023-05-08T09:42:34.096Z,53.28
2023-05-08T09:43:34.068Z,53.04
2023-05-08T09:44:34.075Z,52.89
2023-05-08T09:45:34.057Z,52.84
2023-05-08T09:46:34.959Z,52.93
2023-05-08T09:47:34.132Z,53.19
2023-05-08T09:48:33.995Z,53.20
2023-05-08T09:49:35.130Z,53.14
2023-05-08T09:50:34.001Z,52.71
2023-05-08T09:51:34.116Z,52.88
2023-05-08T09:52:34.062Z,53.76
2023-05-08T09:53:34.008Z,53.88
2023-05-08T09:54:33.966Z,53.44
2023-05-08T09:55:33.970Z,53.31
2023-05-08T09:56:34.087Z,53.45
2023-05-08T09:57:33.953Z,53.76
2023-05-08T09:58:34.116Z,53.31
2023-05-08T09:59:34.528Z,53.26
2023-05-08T10:00:34.156Z,53.26
2023-05-08T10:01:34.349Z,53.08
2023-05-08T10:02:34.211Z,53.42
2023-05-08T10:03:34.251Z,53.29
2023-05-08T10:04:34.185Z,53.59
2023-05-08T10:05:34.233Z,53.09
2023-05-08T10:06:34.588Z,53.84
2023-05-08T10:07:34.161Z,54.12
2023-05-08T10:08:34.151Z,54.27
2023-05-08T10:09:46.745Z,53.23
2023-05-08T10:10:35.291Z,53.33
2023-05-08T10:11:34.247Z,53.58
2023-05-08T10:12:34.344Z,52.04
2023-05-08T10:13:34.294Z,52.02
2023-05-08T10:14:34.216Z,52.00
2023-05-08T10:15:34.189Z,51.13
2023-05-08T10:16:34.192Z,51.56
2023-05-08T10:17:34.213Z,51.45
2023-05-08T10:18:34.172Z,51.35
2023-05-08T10:19:34.176Z,51.45
2023-05-08T10:20:34.096Z,51.27
2023-05-08T10:21:34.589Z,51.27
2023-05-08T10:22:34.172Z,51.28
2023-05-08T10:23:34.137Z,52.10
2023-05-08T10:24:34.151Z,51.78
2023-05-08T10:25:34.174Z,51.74
2023-05-08T10:26:34.640Z,51.76
2023-05-08T10:27:34.176Z,51.38
2023-05-08T10:28:34.197Z,51.62
2023-05-08T10:29:34.759Z,52.20
2023-05-08T10:30:34.462Z,52.37
2023-05-08T10:31:34.663Z,50.65
2023-05-08T10:32:34.441Z,50.33
2023-05-08T10:33:34.490Z,50.25
2023-05-08T10:34:34.587Z,50.52
2023-05-08T10:35:35.636Z,50.05
2023-05-08T10:36:35.146Z,50.59
2023-05-08T10:37:34.665Z,51.79
2023-05-08T10:38:34.763Z,52.17
2023-05-08T10:39:35.601Z,51.82
2023-05-08T10:40:34.837Z,50.87
2023-05-08T10:41:34.858Z,51.34
2023-05-08T10:42:35.108Z,50.72
2023-05-08T10:43:35.002Z,49.87
2023-05-08T10:44:34.979Z,50.96
2023-05-08T10:45:35.024Z,50.29
2023-05-08T10:46:36.020Z,49.92
2023-05-08T10:47:35.632Z,49.28
2023-05-08T10:48:35.226Z,49.74
2023-05-08T10:49:35.151Z,50.04
2023-05-08T10:50:35.170Z,50.54
2023-05-08T10:51:35.162Z,50.57
2023-05-08T10:52:35.241Z,50.09
2023-05-08T10:53:35.168Z,50.70
2023-05-08T10:54:35.255Z,49.31
2023-05-08T10:55:35.262Z,49.67
2023-05-08T10:56:35.293Z,49.93
2023-05-08T10:57:35.274Z,49.78
2023-05-08T10:58:35.260Z,48.05
2023-05-08T10:59:35.283Z,47.86
2023-05-08T11:00:35.221Z,47.83
2023-05-08T11:01:35.257Z,47.77
2023-05-08T11:02:35.351Z,47.75
2023-05-08T11:03:35.308Z,48.35
2023-05-08T11:04:35.320Z,48.02
2023-05-08T11:05:35.273Z,47.86
2023-05-08T11:06:35.267Z,47.05
2023-05-08T11:07:35.621Z,47.78
2023-05-08T11:08:35.286Z,48.25
2023-05-08T11:09:35.344Z,47.13
2023-05-08T11:10:35.356Z,47.29
2023-05-08T11:11:35.352Z,46.73
2023-05-08T11:12:35.636Z,46.71
2023-05-08T11:13:35.427Z,46.19
2023-05-08T11:14:35.380Z,47.00
2023-05-08T11:15:35.430Z,46.53
2023-05-08T11:16:35.422Z,46.14
2023-05-08T11:17:35.605Z,46.73
2023-05-08T11:18:48.580Z,47.02
2023-05-08T11:19:36.378Z,46.51
2023-05-08T11:20:35.370Z,46.83
2023-05-08T11:21:35.418Z,46.01
2023-05-08T11:22:35.434Z,46.15
2023-05-08T11:23:35.378Z,46.16
2023-05-08T11:24:35.379Z,46.07
2023-05-08T11:25:35.355Z,46.78
2023-05-08T11:26:35.421Z,46.35
2023-05-08T11:27:35.626Z,46.82
2023-05-08T11:28:35.371Z,48.18
2023-05-08T11:29:35.345Z,47.73
2023-05-08T11:30:38.379Z,47.33
2023-05-08T11:31:35.421Z,46.85
2023-05-08T11:32:35.654Z,45.82
2023-05-08T11:33:35.351Z,45.86
2023-05-08T11:34:35.317Z,46.65
2023-05-08T11:35:35.530Z,46.43
2023-05-08T11:36:35.322Z,46.37
2023-05-08T11:37:35.597Z,45.50
2023-05-08T11:38:35.359Z,45.91
2023-05-08T11:39:35.243Z,45.66
2023-05-08T11:40:35.261Z,45.77
2023-05-08T11:41:35.256Z,45.91
2023-05-08T11:42:35.272Z,45.90
2023-05-08T11:43:35.232Z,45.66
2023-05-08T11:44:35.242Z,46.17
2023-05-08T11:45:35.248Z,47.28
2023-05-08T11:46:35.309Z,47.14
2023-05-08T11:47:35.721Z,47.33
2023-05-08T11:48:35.305Z,46.74
2023-05-08T11:49:35.218Z,46.28
2023-05-08T11:50:35.167Z,46.68
2023-05-08T11:51:35.174Z,45.92
2023-05-08T11:52:35.190Z,45.39
2023-05-08T11:53:35.218Z,46.13
2023-05-08T11:54:35.145Z,46.10
2023-05-08T11:55:35.161Z,45.37
2023-05-08T11:56:35.202Z,45.68
2023-05-08T11:57:35.165Z,46.23
2023-05-08T11:58:35.124Z,45.82
2023-05-08T11:59:35.123Z,46.13
2023-05-08T12:00:35.144Z,46.55
2023-05-08T12:01:35.129Z,47.35
2023-05-08T12:02:35.153Z,46.13
2023-05-08T12:03:35.256Z,45.44
2023-05-08T12:04:35.196Z,44.48
2023-05-08T12:05:35.062Z,43.41
2023-05-08T12:06:35.066Z,42.92
2023-05-08T12:07:35.080Z,42.99
2023-05-08T12:08:35.035Z,42.52
2023-05-08T12:09:35.044Z,42.31
2023-05-08T12:10:35.041Z,41.41
2023-05-08T12:11:35.050Z,42.34
2023-05-08T12:12:35.051Z,42.77
2023-05-08T12:13:35.158Z,42.85
2023-05-08T12:14:35.029Z,43.10
2023-05-08T12:15:34.992Z,42.63
2023-05-08T12:16:35.004Z,42.87
2023-05-08T12:17:35.016Z,42.60
2023-05-08T12:18:35.571Z,43.19
2023-05-08T12:19:35.019Z,42.77
2023-05-08T12:20:35.018Z,42.13
2023-05-08T12:21:35.069Z,40.99
2023-05-08T12:22:35.130Z,41.48
2023-05-08T12:23:35.136Z,41.80
2023-05-08T12:24:35.143Z,40.20
2023-05-08T12:25:35.153Z,41.63
2023-05-08T12:26:35.103Z,42.63
2023-05-08T12:27:35.153Z,41.90
2023-05-08T12:28:35.185Z,40.75
2023-05-08T12:29:35.179Z,39.05
2023-05-08T12:30:35.226Z,39.42
2023-05-08T12:31:35.276Z,41.04
2023-05-08T12:32:35.306Z,41.32
2023-05-08T12:33:35.320Z,40.40
2023-05-08T12:34:35.318Z,40.41
2023-05-08T12:35:35.398Z,40.93
2023-05-08T12:36:35.372Z,39.57
2023-05-08T12:37:35.455Z,37.58
2023-05-08T12:38:35.471Z,38.45
2023-05-08T12:39:35.489Z,40.01
2023-05-08T12:40:35.484Z,40.55
2023-05-08T12:41:35.562Z,40.41
2023-05-08T12:42:35.640Z,40.52
2023-05-08T12:43:35.590Z,39.67
2023-05-08T12:44:35.701Z,38.71
2023-05-08T12:45:35.720Z,39.74
2023-05-08T12:46:35.744Z,39.19
2023-05-08T12:47:35.780Z,39.81
2023-05-08T12:48:35.801Z,39.48
2023-05-08T12:49:35.803Z,39.73
2023-05-08T12:50:35.820Z,40.97
2023-05-08T12:51:35.789Z,38.65
2023-05-08T12:52:35.856Z,38.25
2023-05-08T12:53:35.901Z,38.60
2023-05-08T12:54:35.958Z,39.69
2023-05-08T12:55:35.930Z,38.01
2023-05-08T12:56:35.941Z,38.77